Time;durP1;ratioP1;P1;durP2;ratioP2;P2;SDS_P1;SDS_P2;PMS_P1;PMS_P2;Temp;Humidity;BMP_temperature;BMP_pressure;BME280_temperature;BME280_humidity;BME280_pressure;Samples;Min_cycle;Max_cycle;Signal;HPM_P1;HPM_P2
2022/10/31 00:00:47;;;;;;;14.68;8.90;;;;;;;12.21;100.00;101912.84;5113242;28;20051;-51
2022/10/31 00:03:16;;;;;;;14.75;8.80;;;;;;;12.12;100.00;101914.22;5110475;28;20070;-52
2022/10/31 00:05:47;;;;;;;13.48;8.18;;;;;;;12.10;100.00;101915.22;5112399;28;20573;-54
2022/10/31 00:08:16;;;;;;;15.60;9.48;;;;;;;12.04;100.00;101921.69;5114050;28;20043;-54
2022/10/31 00:10:45;;;;;;;13.70;8.55;;;;;;;11.96;100.00;101922.09;5113827;28;20119;-53
2022/10/31 00:13:15;;;;;;;16.63;9.57;;;;;;;11.89;100.00;101925.97;5109893;28;20475;-54
2022/10/31 00:15:43;;;;;;;16.73;9.70;;;;;;;11.91;100.00;101921.47;5112182;28;20048;-53
2022/10/31 00:18:12;;;;;;;15.50;9.10;;;;;;;11.91;100.00;101917.97;5113829;28;20058;-51
2022/10/31 00:20:42;;;;;;;15.35;8.80;;;;;;;11.87;100.00;101912.00;5113686;27;20051;-52
2022/10/31 00:23:12;;;;;;;17.38;10.10;;;;;;;11.83;100.00;101915.75;5113521;28;20506;-52
2022/10/31 00:25:40;;;;;;;18.33;10.05;;;;;;;11.86;100.00;101925.28;5112618;28;20096;-56
2022/10/31 00:28:11;;;;;;;17.65;10.07;;;;;;;11.82;100.00;101919.31;5110227;28;20039;-55
2022/10/31 00:30:39;;;;;;;16.80;9.38;;;;;;;11.81;100.00;101925.53;5111902;28;20051;-56
2022/10/31 00:33:08;;;;;;;18.17;9.60;;;;;;;11.77;100.00;101929.25;5113410;28;20406;-57
2022/10/31 00:35:36;;;;;;;15.38;8.93;;;;;;;11.78;100.00;101930.94;5109724;28;20127;-54
2022/10/31 00:38:04;;;;;;;15.82;9.63;;;;;;;11.74;100.00;101924.13;5110469;28;20426;-55
2022/10/31 00:40:36;;;;;;;17.17;9.43;;;;;;;11.72;100.00;101931.28;5110004;28;20048;-56
2022/10/31 00:43:04;;;;;;;16.05;10.05;;;;;;;11.65;100.00;101933.38;5111494;28;20039;-57
2022/10/31 00:45:32;;;;;;;18.00;8.77;;;;;;;11.63;100.00;101930.84;5109793;28;20058;-56
2022/10/31 00:48:00;;;;;;;19.05;10.73;;;;;;;11.60;100.00;101924.88;5109106;28;20098;-56
2022/10/31 00:50:29;;;;;;;18.85;10.57;;;;;;;11.57;100.00;101930.31;5108964;28;20043;-56
2022/10/31 00:52:58;;;;;;;17.88;10.48;;;;;;;11.54;100.00;101935.75;5109998;28;20048;-56
2022/10/31 00:55:26;;;;;;;17.13;10.13;;;;;;;11.48;100.00;101929.00;5108275;28;20046;-56
2022/10/31 00:57:56;;;;;;;14.55;9.45;;;;;;;11.47;100.00;101933.41;5109695;28;20047;-56
2022/10/31 01:00:24;;;;;;;15.20;9.35;;;;;;;11.48;100.00;101936.91;5109359;28;20375;-56
2022/10/31 01:02:53;;;;;;;18.67;9.95;;;;;;;11.46;100.00;101930.84;5109265;28;20134;-56
2022/10/31 01:05:21;;;;;;;16.92;9.50;;;;;;;11.42;100.00;101931.94;5111597;28;20036;-55
2022/10/31 01:07:49;;;;;;;17.23;10.23;;;;;;;11.39;100.00;101935.59;5110007;28;20048;-57
2022/10/31 01:10:18;;;;;;;14.27;9.10;;;;;;;11.35;100.00;101935.84;5110433;28;20544;-56
2022/10/31 01:12:48;;;;;;;15.63;9.35;;;;;;;11.36;100.00;101937.50;5110087;28;20039;-55
2022/10/31 01:15:20;;;;;;;13.57;8.45;;;;;;;11.33;100.00;101938.56;5109680;28;20047;-56
2022/10/31 01:17:48;;;;;;;15.30;9.55;;;;;;;11.23;100.00;101924.97;5109278;28;20044;-56
2022/10/31 01:20:17;;;;;;;14.60;9.05;;;;;;;11.21;100.00;101926.84;5109999;28;20036;-57
2022/10/31 01:22:46;;;;;;;18.02;9.98;;;;;;;11.16;100.00;101924.44;5112767;28;20043;-57
2022/10/31 01:25:14;;;;;;;16.58;9.32;;;;;;;11.14;100.00;101931.56;5112721;28;20063;-54
2022/10/31 01:27:42;;;;;;;16.63;9.23;;;;;;;11.16;100.00;101931.50;5112812;28;20093;-52
2022/10/31 01:30:11;;;;;;;15.05;9.05;;;;;;;11.15;100.00;101935.91;5110210;28;20048;-52
2022/10/31 01:32:41;;;;;;;17.15;8.95;;;;;;;11.12;100.00;101936.03;5109951;28;20514;-53
2022/10/31 01:35:09;;;;;;;14.85;8.95;;;;;;;11.11;100.00;101931.72;5111318;28;20118;-50
2022/10/31 01:37:37;;;;;;;14.77;8.88;;;;;;;11.12;100.00;101937.84;5109548;28;20406;-52
2022/10/31 01:40:07;;;;;;;15.35;8.68;;;;;;;11.07;100.00;101929.31;5110970;28;20046;-53
2022/10/31 01:42:35;;;;;;;16.88;10.20;;;;;;;11.08;100.00;101926.59;5112575;28;20410;-53
2022/10/31 01:45:05;;;;;;;17.77;10.05;;;;;;;11.02;100.00;101915.56;5112048;28;20055;-52
2022/10/31 01:47:41;;;;;;;15.48;9.05;;;;;;;10.98;100.00;101912.22;5114644;28;20568;-50
2022/10/31 01:50:24;;;;;;;15.80;9.18;;;;;;;10.93;100.00;101912.41;5114663;28;20058;-52
2022/10/31 01:52:53;;;;;;;15.07;8.95;;;;;;;10.92;100.00;101902.84;5113589;28;20571;-51
2022/10/31 01:55:26;;;;;;;13.40;8.90;;;;;;;10.88;100.00;101908.31;5111756;28;20437;-51
2022/10/31 01:58:01;;;;;;;13.57;9.10;;;;;;;10.85;100.00;101911.94;5114869;28;20069;-51
2022/10/31 02:00:30;;;;;;;14.25;8.85;;;;;;;10.77;100.00;101907.09;5114463;28;20063;-55
2022/10/31 02:02:59;;;;;;;16.02;9.63;;;;;;;10.81;100.00;101903.38;5113077;27;20499;-55
2022/10/31 02:05:31;;;;;;;14.82;9.35;;;;;;;10.83;100.00;101912.03;5116446;28;20481;-55
2022/10/31 02:08:03;;;;;;;17.73;9.18;;;;;;;10.85;100.00;101919.00;5115029;28;20555;-54
2022/10/31 02:10:33;;;;;;;15.30;9.00;;;;;;;10.82;100.00;101922.63;5111533;28;20043;-56
2022/10/31 02:13:05;;;;;;;12.63;8.73;;;;;;;10.79;100.00;101920.16;5114769;28;20039;-55
2022/10/31 02:15:34;;;;;;;13.82;8.82;;;;;;;10.81;100.00;101918.28;5116164;28;20078;-53
2022/10/31 02:18:02;;;;;;;14.80;9.18;;;;;;;10.79;100.00;101920.16;5113105;28;20398;-55
2022/10/31 02:20:38;;;;;;;15.82;9.15;;;;;;;10.74;100.00;101919.53;5112214;28;20375;-52
2022/10/31 02:23:47;;;;;;;15.02;9.55;;;;;;;10.73;100.00;101920.44;5113111;28;20051;-52
2022/10/31 02:26:54;;;;;;;18.15;9.75;;;;;;;10.72;100.00;101924.03;5115929;28;20056;-49
2022/10/31 02:29:57;;;;;;;17.52;9.43;;;;;;;10.69;100.00;101921.53;5106216;27;20064;-49
2022/10/31 02:32:35;;;;;;;13.85;9.63;;;;;;;10.68;100.00;101922.47;5091322;28;20059;-50
2022/10/31 02:35:14;;;;;;;16.88;9.90;;;;;;;10.65;100.00;101924.31;5116028;28;20541;-52
2022/10/31 02:37:51;;;;;;;14.20;8.65;;;;;;;10.68;100.00;101922.47;5115528;27;20078;-52
2022/10/31 02:40:26;;;;;;;13.90;9.07;;;;;;;10.65;100.00;101924.31;5115629;28;20055;-53
2022/10/31 02:43:03;;;;;;;12.07;8.45;;;;;;;10.67;100.00;101932.13;5115513;28;20078;-53
2022/10/31 02:45:36;;;;;;;14.02;8.90;;;;;;;10.65;100.00;101928.72;5115746;28;20502;-52
2022/10/31 02:48:13;;;;;;;13.20;8.77;;;;;;;10.67;100.00;101920.75;5115687;28;20058;-52
2022/10/31 02:50:46;;;;;;;15.38;8.90;;;;;;;10.64;100.00;101924.38;5115699;28;20552;-52
2022/10/31 02:53:15;;;;;;;13.45;8.43;;;;;;;10.69;100.00;101921.53;5115569;28;20530;-53
2022/10/31 02:55:51;;;;;;;14.60;9.38;;;;;;;10.65;100.00;101912.94;5114483;28;20482;-50
2022/10/31 02:58:23;;;;;;;14.32;8.95;;;;;;;10.68;100.00;101919.84;5114751;28;20047;-53
2022/10/31 03:01:08;;;;;;;14.35;8.98;;;;;;;10.65;100.00;101919.03;5115340;28;20051;-53
2022/10/31 03:03:48;;;;;;;14.52;8.48;;;;;;;10.56;100.00;101910.75;5115312;28;20092;-52
2022/10/31 03:06:24;;;;;;;13.63;7.78;;;;;;;10.51;100.00;101913.59;5115385;28;20065;-53
2022/10/31 03:09:02;;;;;;;14.52;8.52;;;;;;;10.46;100.00;101905.94;5115323;28;20039;-53
2022/10/31 03:11:37;;;;;;;12.25;7.85;;;;;;;10.47;100.00;101910.28;5115255;28;20043;-52
2022/10/31 03:14:11;;;;;;;13.73;8.43;;;;;;;10.44;100.00;101912.19;5114788;28;20056;-53
2022/10/31 03:16:46;;;;;;;12.18;8.13;;;;;;;10.44;100.00;101915.69;5114740;28;20391;-50
2022/10/31 03:19:19;;;;;;;13.65;7.93;;;;;;;10.40;100.00;101919.38;5114315;28;20056;-51
2022/10/31 03:21:53;;;;;;;13.85;7.65;;;;;;;10.42;100.00;101922.78;5114678;28;20047;-50
2022/10/31 03:24:23;;;;;;;11.30;7.20;;;;;;;10.34;100.00;101924.88;5114878;28;20048;-53
2022/10/31 03:26:53;;;;;;;14.10;7.72;;;;;;;10.28;100.00;101925.16;5115047;28;20490;-50
2022/10/31 03:29:26;;;;;;;13.88;7.30;;;;;;;10.23;100.00;101924.53;5114841;27;20127;-49
2022/10/31 03:31:58;;;;;;;13.02;8.00;;;;;;;10.24;100.00;101916.59;5114696;28;20459;-52
2022/10/31 03:34:30;;;;;;;12.33;7.37;;;;;;;10.18;100.00;101924.75;5114852;28;20036;-52
2022/10/31 03:37:04;;;;;;;12.98;7.25;;;;;;;10.15;100.00;101925.72;5114481;28;20067;-51
2022/10/31 03:39:34;;;;;;;12.30;7.35;;;;;;;10.11;100.00;101931.22;5114537;28;20101;-49
2022/10/31 03:42:08;;;;;;;12.77;7.22;;;;;;;10.04;100.00;101930.63;5114589;28;20122;-50
2022/10/31 03:44:39;;;;;;;12.02;7.38;;;;;;;9.96;100.00;101928.34;5113151;28;20566;-55
2022/10/31 03:47:08;;;;;;;13.13;7.60;;;;;;;9.93;100.00;101927.66;5112107;28;20116;-55
2022/10/31 03:49:38;;;;;;;14.82;7.72;;;;;;;9.89;100.00;101923.47;5110634;28;20520;-55
2022/10/31 03:52:14;;;;;;;14.38;8.15;;;;;;;9.91;100.00;101926.84;5111174;28;20047;-51
2022/10/31 03:54:45;;;;;;;12.25;8.40;;;;;;;9.76;100.00;101926.63;5110167;28;20176;-53
2022/10/31 03:57:20;;;;;;;14.48;8.20;;;;;;;9.72;100.00;101932.94;5110371;28;20047;-53
2022/10/31 03:59:54;;;;;;;11.75;7.93;;;;;;;9.77;100.00;101925.69;5113906;28;20496;-54
2022/10/31 04:02:28;;;;;;;12.55;7.75;;;;;;;9.81;100.00;101918.53;5113859;28;20076;-53
2022/10/31 04:04:59;;;;;;;12.75;7.70;;;;;;;9.71;100.00;101930.41;5111706;28;20062;-53
2022/10/31 04:07:31;;;;;;;13.32;7.97;;;;;;;9.72;100.00;101926.81;5110829;27;20035;-52
2022/10/31 04:10:03;;;;;;;12.38;7.72;;;;;;;9.68;100.00;101925.25;5109346;28;20062;-53
2022/10/31 04:12:33;;;;;;;13.05;6.95;;;;;;;9.69;100.00;101924.34;5110010;28;20067;-55
2022/10/31 04:15:04;;;;;;;13.38;7.30;;;;;;;9.64;100.00;101924.56;5110906;28;20062;-52
2022/10/31 04:17:37;;;;;;;13.70;7.43;;;;;;;9.59;100.00;101932.63;5109678;28;20043;-53
2022/10/31 04:20:08;;;;;;;13.15;7.43;;;;;;;9.58;100.00;101930.06;5111907;28;20051;-54
2022/10/31 04:22:36;;;;;;;11.82;6.85;;;;;;;9.55;100.00;101925.78;5113576;28;20040;-53
2022/10/31 04:25:05;;;;;;;12.02;6.53;;;;;;;9.50;100.00;101925.13;5113808;28;20048;-53
2022/10/31 04:27:33;;;;;;;15.73;7.07;;;;;;;9.50;100.00;101919.88;5112342;28;20051;-55
2022/10/31 04:30:01;;;;;;;12.75;7.50;;;;;;;9.51;100.00;101915.50;5110437;28;20043;-54
2022/10/31 04:32:29;;;;;;;10.82;7.05;;;;;;;9.43;100.00;101914.03;5109477;28;20051;-55
2022/10/31 04:34:57;;;;;;;11.88;7.00;;;;;;;9.44;100.00;101914.91;5110109;28;20497;-55
2022/10/31 04:37:27;;;;;;;12.15;7.13;;;;;;;9.39;100.00;101914.25;5112659;28;20046;-54
2022/10/31 04:39:55;;;;;;;11.70;6.95;;;;;;;9.39;100.00;101909.00;5113349;28;20055;-54
2022/10/31 04:42:23;;;;;;;12.18;7.03;;;;;;;9.38;100.00;101915.16;5112843;28;20050;-54
2022/10/31 04:44:51;;;;;;;16.80;8.05;;;;;;;9.36;100.00;101923.09;5112838;28;20131;-54
2022/10/31 04:47:19;;;;;;;12.45;7.82;;;;;;;9.38;100.00;101923.03;5110529;28;20040;-54
2022/10/31 04:49:47;;;;;;;15.93;8.30;;;;;;;9.32;100.00;101921.53;5110020;28;20039;-54
2022/10/31 04:52:15;;;;;;;13.57;7.25;;;;;;;9.31;100.00;101919.81;5110269;28;20144;-54
2022/10/31 04:54:47;;;;;;;10.98;7.38;;;;;;;9.28;100.00;101920.84;5112025;28;20104;-53
2022/10/31 04:57:15;;;;;;;13.88;6.88;;;;;;;9.23;100.00;101920.16;5110927;28;20085;-54
2022/10/31 04:59:43;;;;;;;10.77;6.28;;;;;;;9.30;100.00;101921.59;5110430;28;20646;-53
2022/10/31 05:02:11;;;;;;;11.77;6.68;;;;;;;9.23;100.00;101920.16;5111932;28;20051;-52
2022/10/31 05:04:39;;;;;;;12.80;6.50;;;;;;;9.24;100.00;101915.75;5112908;28;20062;-51
2022/10/31 05:07:08;;;;;;;10.25;6.35;;;;;;;9.19;100.00;101907.22;5111864;28;20105;-49
2022/10/31 05:09:36;;;;;;;15.52;6.57;;;;;;;9.23;100.00;101914.03;5111317;28;20737;-50
2022/10/31 05:12:05;;;;;;;13.73;7.35;;;;;;;9.19;100.00;101908.09;5109524;28;20074;-52
2022/10/31 05:14:33;;;;;;;13.90;7.57;;;;;;;9.19;100.00;101915.97;5111684;28;20100;-51
2022/10/31 05:17:01;;;;;;;13.88;7.40;;;;;;;9.21;100.00;101910.66;5112694;28;20108;-52
2022/10/31 05:19:29;;;;;;;13.95;8.52;;;;;;;9.15;100.00;101909.13;5112713;28;20051;-51
2022/10/31 05:21:57;;;;;;;14.60;7.82;;;;;;;9.07;100.00;101912.06;5112431;28;20112;-50
2022/10/31 05:24:25;;;;;;;14.60;8.55;;;;;;;9.07;100.00;101900.75;5111718;27;20474;-52
2022/10/31 05:26:54;;;;;;;14.07;8.40;;;;;;;9.09;100.00;101902.38;5112839;28;20131;-52
2022/10/31 05:29:23;;;;;;;11.75;7.28;;;;;;;9.06;100.00;101899.03;5112778;28;20100;-52
2022/10/31 05:31:51;;;;;;;13.25;7.57;;;;;;;9.08;100.00;101894.53;5112582;28;20459;-48
2022/10/31 05:34:19;;;;;;;12.77;6.97;;;;;;;9.09;100.00;101893.63;5112780;28;20482;-51
2022/10/31 05:36:48;;;;;;;13.07;8.07;;;;;;;9.11;100.00;101895.28;5112524;28;20520;-52
2022/10/31 05:39:16;;;;;;;13.23;7.53;;;;;;;9.11;100.00;101894.44;5113018;28;20502;-51
2022/10/31 05:41:44;;;;;;;14.10;7.63;;;;;;;9.10;100.00;101895.34;5112772;28;20043;-51
2022/10/31 05:44:12;;;;;;;14.40;8.73;;;;;;;9.05;100.00;101889.44;5112460;28;20100;-51
2022/10/31 05:46:41;;;;;;;13.95;7.78;;;;;;;9.07;100.00;101885.84;5112619;28;20219;-50
2022/10/31 05:49:09;;;;;;;12.63;7.65;;;;;;;9.04;100.00;101895.59;5112479;28;20127;-52
2022/10/31 05:51:37;;;;;;;13.43;8.38;;;;;;;9.02;100.00;101900.06;5112634;28;20117;-51
2022/10/31 05:54:06;;;;;;;15.35;8.82;;;;;;;9.08;100.00;101899.78;5111267;28;20146;-49
2022/10/31 05:56:38;;;;;;;13.95;8.55;;;;;;;9.06;100.00;101896.41;5112357;28;20054;-51
2022/10/31 05:59:06;;;;;;;16.38;8.77;;;;;;;9.06;100.00;101899.88;5112492;28;20097;-50
2022/10/31 06:01:35;;;;;;;15.43;8.57;;;;;;;9.05;100.00;101895.56;5111303;28;20043;-57
2022/10/31 06:04:04;;;;;;;16.05;8.85;;;;;;;9.04;100.00;101896.47;5108468;28;20115;-52
2022/10/31 06:06:32;;;;;;;15.45;8.73;;;;;;;9.11;100.00;101895.28;5108773;28;20067;-52
2022/10/31 06:09:00;;;;;;;15.02;8.10;;;;;;;9.10;100.00;101896.19;5107660;28;20047;-52
2022/10/31 06:11:28;;;;;;;14.75;8.43;;;;;;;9.10;100.00;101897.97;5110643;28;20044;-53
2022/10/31 06:13:56;;;;;;;16.40;9.02;;;;;;;9.14;100.00;101900.41;5108811;28;20109;-53
2022/10/31 06:16:25;;;;;;;19.63;11.00;;;;;;;9.16;100.00;101902.94;5108584;28;20491;-53
2022/10/31 06:18:55;;;;;;;20.02;10.50;;;;;;;9.16;100.00;101888.97;5107930;28;20638;-52
2022/10/31 06:21:25;;;;;;;18.63;10.40;;;;;;;9.14;100.00;101894.31;5111245;28;20043;-54
2022/10/31 06:23:53;;;;;;;16.67;9.68;;;;;;;9.18;100.00;101888.00;5110415;28;20047;-52
2022/10/31 06:26:21;;;;;;;15.27;9.55;;;;;;;9.16;100.00;101881.94;5108355;28;20039;-52
2022/10/31 06:28:49;;;;;;;15.82;9.27;;;;;;;9.11;100.00;101887.41;5110656;28;20040;-52
2022/10/31 06:31:17;;;;;;;14.60;8.77;;;;;;;9.04;100.00;101893.84;5108858;28;20051;-54
2022/10/31 06:33:46;;;;;;;15.18;9.07;;;;;;;9.03;100.00;101897.38;5109174;28;20405;-51
2022/10/31 06:36:14;;;;;;;14.48;8.20;;;;;;;9.03;100.00;101894.75;5114744;28;20402;-55
2022/10/31 06:38:43;;;;;;;13.85;8.60;;;;;;;9.02;100.00;101894.81;5113494;28;20039;-49
2022/10/31 06:41:11;;;;;;;15.30;9.30;;;;;;;8.99;100.00;101897.59;5111814;28;20050;-51
2022/10/31 06:43:39;;;;;;;13.73;8.43;;;;;;;9.01;100.00;101896.56;5112298;28;20047;-50
2022/10/31 06:46:08;;;;;;;15.32;8.55;;;;;;;8.96;100.00;101896.78;5112782;28;20069;-53
2022/10/31 06:48:36;;;;;;;16.75;9.95;;;;;;;9.04;100.00;101896.47;5111665;28;20054;-52
2022/10/31 06:51:04;;;;;;;16.42;9.30;;;;;;;9.00;100.00;101896.63;5113034;28;20126;-52
2022/10/31 06:53:32;;;;;;;18.00;9.45;;;;;;;8.96;100.00;101895.94;5115323;27;20047;-53
2022/10/31 06:56:02;;;;;;;21.92;10.88;;;;;;;8.96;100.00;101894.16;5115389;28;20116;-53
2022/10/31 06:58:30;;;;;;;20.98;11.02;;;;;;;9.03;100.00;101896.53;5115323;28;20105;-50
2022/10/31 07:01:00;;;;;;;22.60;11.27;;;;;;;9.08;100.00;101897.16;5115492;28;20051;-52
2022/10/31 07:03:28;;;;;;;23.52;12.65;;;;;;;9.10;100.00;101903.22;5113439;28;20084;-51
2022/10/31 07:05:57;;;;;;;22.17;11.48;;;;;;;9.14;100.00;101900.41;5111928;28;20521;-52
2022/10/31 07:08:26;;;;;;;21.38;12.20;;;;;;;9.17;100.00;101904.66;5113026;28;20055;-52
2022/10/31 07:10:56;;;;;;;22.65;11.57;;;;;;;9.16;100.00;101907.34;5113539;28;20058;-51
2022/10/31 07:13:26;;;;;;;16.65;9.95;;;;;;;9.28;100.00;101906.84;5111248;28;20035;-51
2022/10/31 07:15:56;;;;;;;24.05;11.95;;;;;;;9.30;100.00;101905.84;5114848;28;20521;-50
2022/10/31 07:18:24;;;;;;;17.17;10.95;;;;;;;9.32;100.00;101903.16;5113582;28;20048;-49
2022/10/31 07:20:53;;;;;;;16.42;11.52;;;;;;;9.36;100.00;101911.75;5111606;28;20043;-53
2022/10/31 07:23:22;;;;;;;18.42;11.73;;;;;;;9.36;100.00;101903.88;5110597;27;20067;-50
2022/10/31 07:25:55;;;;;;;25.88;12.50;;;;;;;9.40;100.00;101905.47;5113489;28;20047;-52
2022/10/31 07:28:25;;;;;;;22.92;12.73;;;;;;;9.42;100.00;101906.22;5111955;28;20043;-53
2022/10/31 07:30:55;;;;;;;21.80;12.95;;;;;;;9.50;100.00;101911.16;5111834;28;20047;-52
2022/10/31 07:33:25;;;;;;;22.50;13.00;;;;;;;9.51;100.00;101903.22;5110480;28;20048;-53
2022/10/31 07:35:54;;;;;;;23.33;13.85;;;;;;;9.52;100.00;101904.94;5111086;28;20483;-51
2022/10/31 07:38:22;;;;;;;23.05;13.73;;;;;;;9.59;100.00;101898.47;5113651;28;20035;-52
2022/10/31 07:40:52;;;;;;;23.83;14.52;;;;;;;9.64;100.00;101904.38;5114502;28;20043;-50
2022/10/31 07:43:21;;;;;;;21.83;13.32;;;;;;;9.77;100.00;101898.59;5113353;28;20043;-49
2022/10/31 07:45:54;;;;;;;25.38;14.68;;;;;;;9.85;100.00;101891.19;5110691;28;20573;-52
2022/10/31 07:48:22;;;;;;;24.48;14.15;;;;;;;9.93;100.00;101896.97;5110933;28;20047;-52
2022/10/31 07:50:51;;;;;;;30.05;15.18;;;;;;;10.02;100.00;101897.47;5111358;28;20063;-52
2022/10/31 07:53:19;;;;;;;24.00;15.23;;;;;;;10.09;100.00;101901.50;5109967;28;20095;-52
2022/10/31 07:55:47;;;;;;;26.67;14.75;;;;;;;10.11;100.00;101904.94;5110749;28;20040;-53
2022/10/31 07:58:16;;;;;;;26.58;16.48;;;;;;;10.19;100.00;101909.84;5110680;27;20035;-51
2022/10/31 08:00:47;;;;;;;25.20;16.45;;;;;;;10.30;100.00;101908.38;5112897;28;20505;-49
2022/10/31 08:03:18;;;;;;;23.88;15.90;;;;;;;10.46;100.00;101905.09;5114083;28;20416;-53
2022/10/31 08:05:47;;;;;;;23.08;15.85;;;;;;;10.55;100.00;101912.53;5111076;28;20047;-52
2022/10/31 08:08:16;;;;;;;22.65;15.98;;;;;;;10.52;100.00;101912.66;5111311;28;20039;-54
2022/10/31 08:10:44;;;;;;;22.73;16.77;;;;;;;10.91;100.00;101914.28;5112746;28;20074;-54
2022/10/31 08:13:14;;;;;;;21.90;15.70;;;;;;;11.08;100.00;101909.97;5110627;28;20097;-55
2022/10/31 08:15:42;;;;;;;19.80;14.88;;;;;;;11.21;100.00;101912.81;5112777;28;20059;-54
2022/10/31 08:18:13;;;;;;;20.20;15.23;;;;;;;11.26;100.00;101909.03;5113913;28;20044;-55
2022/10/31 08:20:44;;;;;;;20.08;14.48;;;;;;;11.21;100.00;101913.69;5113310;28;20047;-54
2022/10/31 08:23:13;;;;;;;19.00;14.93;;;;;;;11.24;100.00;101920.59;5109919;28;20047;-54
2022/10/31 08:25:41;;;;;;;20.70;14.55;;;;;;;11.37;100.00;101926.06;5109725;28;20490;-53
2022/10/31 08:28:11;;;;;;;18.75;15.10;;;;;;;11.51;100.00;101915.69;5110708;28;20494;-53
2022/10/31 08:30:40;;;;;;;20.10;14.30;;;;;;;11.73;100.00;101917.19;5110333;28;20048;-53
2022/10/31 08:33:11;;;;;;;22.55;15.38;;;;;;;11.76;100.00;101911.75;5110350;28;20059;-53
2022/10/31 08:35:40;;;;;;;25.75;17.27;;;;;;;11.92;100.00;101920.53;5108615;28;20043;-54
2022/10/31 08:38:11;;;;;;;21.42;15.90;;;;;;;12.09;100.00;101913.53;5110108;28;20044;-54
2022/10/31 08:40:40;;;;;;;25.60;16.55;;;;;;;12.25;100.00;101911.75;5109473;28;20383;-54
2022/10/31 08:43:13;;;;;;;24.40;17.58;;;;;;;12.39;100.00;101900.41;5112209;28;20175;-54
2022/10/31 08:45:41;;;;;;;;;;;;;;;12.48;100.00;101905.19;5113889;28;20470;-54
2022/10/31 08:48:11;;;;;;;24.58;17.05;;;;;;;12.50;100.00;101900.69;5111327;28;20022;-56
2022/10/31 08:50:40;;;;;;;24.65;17.23;;;;;;;12.73;100.00;101902.94;5110085;28;20569;-56
2022/10/31 08:53:12;;;;;;;22.90;17.35;;;;;;;12.85;100.00;101900.44;5109998;28;20062;-56
2022/10/31 08:55:41;;;;;;;24.42;17.00;;;;;;;13.04;100.00;101896.72;5108842;28;20053;-56
2022/10/31 08:58:19;;;;;;;21.73;16.67;;;;;;;13.07;100.00;101898.34;5109065;28;20385;-59
2022/10/31 09:00:49;;;;;;;23.65;17.30;;;;;;;13.15;100.00;101891.66;5109912;28;20055;-55
2022/10/31 09:03:20;;;;;;;24.75;16.85;;;;;;;13.26;100.00;101901.56;5108716;28;20141;-55
2022/10/31 09:05:48;;;;;;;23.02;17.80;;;;;;;13.39;100.00;101887.66;5109308;28;20512;-56
2022/10/31 09:08:18;;;;;;;22.50;17.27;;;;;;;13.50;100.00;101886.06;5109085;28;20126;-53
2022/10/31 09:10:46;;;;;;;23.75;17.80;;;;;;;13.61;100.00;101890.72;5109498;28;20047;-55
2022/10/31 09:13:16;;;;;;;23.48;17.15;;;;;;;13.73;100.00;101877.66;5112767;28;20394;-56
2022/10/31 09:15:47;;;;;;;23.02;17.25;;;;;;;13.80;100.00;101881.66;5109697;28;20051;-56
2022/10/31 09:18:17;;;;;;;23.50;17.00;;;;;;;13.88;100.00;101881.16;5108503;27;20502;-56
2022/10/31 09:20:47;;;;;;;24.05;17.15;;;;;;;14.03;100.00;101881.03;5112095;28;20077;-56
2022/10/31 09:23:16;;;;;;;26.45;17.48;;;;;;;14.16;100.00;101885.53;5108774;28;20212;-56
2022/10/31 09:25:47;;;;;;;23.48;16.80;;;;;;;14.30;100.00;101888.16;5107607;28;20040;-55
2022/10/31 09:28:20;;;;;;;21.48;15.70;;;;;;;14.42;100.00;101886.50;5108912;28;20059;-56
2022/10/31 09:30:49;;;;;;;22.17;15.32;;;;;;;14.41;100.00;101890.13;5109513;28;20067;-56
2022/10/31 09:33:18;;;;;;;23.73;15.65;;;;;;;14.44;100.00;101879.34;5108808;28;20043;-57
2022/10/31 09:35:46;;;;;;;24.75;16.38;;;;;;;14.50;100.00;101870.97;5108908;28;20810;-56
2022/10/31 09:38:16;;;;;;;21.42;16.50;;;;;;;14.56;100.00;101859.16;5108799;28;20409;-57
2022/10/31 09:40:47;;;;;;;23.55;16.83;;;;;;;14.58;100.00;101833.41;5108791;28;20100;-56
2022/10/31 09:43:24;;;;;;;27.00;16.60;;;;;;;14.52;100.00;101804.72;5111171;28;20036;-57
2022/10/31 09:46:01;;;;;;;26.58;17.88;;;;;;;14.57;100.00;101831.72;5112465;28;20387;-57
2022/10/31 09:48:54;;;;;;;22.52;16.38;;;;;;;14.70;100.00;101835.28;5110827;28;20047;-57
2022/10/31 09:51:29;;;;;;;28.38;17.83;;;;;;;14.81;100.00;101836.38;5108655;28;20048;-57
2022/10/31 09:54:03;;;;;;;25.08;17.98;;;;;;;14.91;100.00;101845.38;5108104;28;20092;-58
2022/10/31 09:56:34;;;;;;;27.05;18.10;;;;;;;14.96;100.00;101842.44;5108427;28;20047;-56
2022/10/31 09:59:07;;;;;;;28.85;18.95;;;;;;;15.01;100.00;101841.16;5108767;28;20081;-57
2022/10/31 10:01:42;;;;;;;27.55;19.15;;;;;;;15.03;100.00;101831.28;5108336;28;20087;-57
2022/10/31 10:04:31;;;;;;;29.42;18.70;;;;;;;15.09;100.00;101847.72;5107808;28;20556;-56
2022/10/31 10:07:03;;;;;;;31.92;19.48;;;;;;;15.09;100.00;101855.66;5109724;28;20043;-56
2022/10/31 10:09:31;;;;;;;32.80;20.33;;;;;;;15.21;100.00;101838.94;5110619;28;20047;-57
2022/10/31 10:12:14;;;;;;;31.45;20.85;;;;;;;15.41;100.00;101847.31;5112844;28;20039;-57
2022/10/31 10:15:00;;;;;;;34.10;22.55;;;;;;;15.58;100.00;101838.16;5113206;28;20056;-57
2022/10/31 10:17:39;;;;;;;34.17;21.52;;;;;;;15.62;100.00;101839.66;5112210;28;20062;-58
2022/10/31 10:20:24;;;;;;;32.60;20.60;;;;;;;15.65;100.00;101829.69;5112571;28;20097;-58
2022/10/31 10:23:01;;;;;;;33.25;20.55;;;;;;;15.74;100.00;101811.41;5114943;28;20047;-54
2022/10/31 10:25:39;;;;;;;32.50;21.25;;;;;;;15.80;100.00;101805.69;5116116;27;20432;-54
2022/10/31 10:28:19;;;;;;;33.70;20.88;;;;;;;15.83;100.00;101814.28;5116274;28;20051;-55
2022/10/31 10:30:51;;;;;;;33.10;18.15;;;;;;;15.90;100.00;101812.03;5114629;28;20051;-54
2022/10/31 10:33:21;;;;;;;27.20;16.77;;;;;;;15.86;100.00;101810.56;5111843;28;20047;-58
2022/10/31 10:35:53;;;;;;;27.13;16.83;;;;;;;15.92;100.00;101809.25;5112704;28;20050;-57
2022/10/31 10:38:28;;;;;;;25.80;15.48;;;;;;;15.88;100.00;101805.97;5111688;28;20051;-54
2022/10/31 10:40:56;;;;;;;27.38;16.65;;;;;;;15.98;100.00;101799.06;5112223;28;20044;-55
2022/10/31 10:43:33;;;;;;;26.92;15.77;;;;;;;16.02;100.00;101800.53;5111822;28;20039;-55
2022/10/31 10:49:17;;;;;;;30.02;17.35;;;;;;;16.07;100.00;101794.03;5115657;28;20063;-55
2022/10/31 10:51:49;;;;;;;30.23;18.88;;;;;;;16.14;100.00;101801.44;5114104;28;20051;-55
2022/10/31 10:54:48;;;;;;;25.25;17.77;;;;;;;16.14;100.00;101787.31;5111022;28;20045;-54
2022/10/31 10:57:39;;;;;;;27.75;18.08;;;;;;;16.22;100.00;101779.63;5114825;28;20048;-55
2022/10/31 11:00:19;;;;;;;27.98;17.65;;;;;;;16.30;100.00;101773.75;5112209;28;20573;-55
2022/10/31 11:02:47;;;;;;;34.00;18.60;;;;;;;16.37;100.00;101762.56;5114639;28;20062;-55
2022/10/31 11:05:23;;;;;;;29.20;18.50;;;;;;;16.41;100.00;101751.72;5115340;28;20104;-55
2022/10/31 11:07:54;;;;;;;33.05;17.63;;;;;;;16.39;100.00;101755.31;5115322;28;20137;-54
2022/10/31 11:10:22;;;;;;;29.17;17.63;;;;;;;16.44;100.00;101748.81;5112642;28;20518;-53
2022/10/31 11:13:05;;;;;;;27.40;17.80;;;;;;;16.42;100.00;101742.78;5110977;28;20054;-52
2022/10/31 11:15:38;;;;;;;31.50;19.50;;;;;;;16.45;100.00;101735.44;5113742;28;20100;-55
2022/10/31 11:18:06;;;;;;;31.88;19.35;;;;;;;16.49;100.00;101738.69;5111304;28;20549;-55
2022/10/31 11:20:37;;;;;;;31.00;19.25;;;;;;;16.68;100.00;101731.00;5110187;28;20073;-52
2022/10/31 11:23:18;;;;;;;31.48;19.27;;;;;;;16.78;100.00;101725.00;5111919;28;20056;-54
2022/10/31 11:25:51;;;;;;;31.70;19.20;;;;;;;16.84;100.00;101717.41;5113877;28;20108;-53
2022/10/31 11:28:19;;;;;;;29.25;19.98;;;;;;;16.88;100.00;101707.38;5114452;27;20194;-54
2022/10/31 11:30:51;;;;;;;32.25;19.70;;;;;;;16.84;100.00;101704.09;5114649;28;20040;-56